Time;durP1;ratioP1;P1;durP2;ratioP2;P2;SDS_P1;SDS_P2;PMS_P1;PMS_P2;Temp;Humidity;BMP_temperature;BMP_pressure;BME280_temperature;BME280_humidity;BME280_pressure;Samples;Min_cycle;Max_cycle;Signal;HPM_P1;HPM_P2
2022/09/19 00:00:44;;;;;;;11.55;0.85;;;17.30;49.00;;;;;;6152938;28;20047;-78
2022/09/19 00:03:52;;;;;;;2.28;0.70;;;17.30;49.00;;;;;;6151825;28;20049;-80
2022/09/19 00:06:54;;;;;;;4.07;1.30;;;17.30;49.20;;;;;;6151020;28;20094;-80
2022/09/19 00:09:55;;;;;;;5.55;0.70;;;17.20;49.20;;;;;;6152184;28;20047;-79
2022/09/19 00:12:57;;;;;;;1.10;0.80;;;17.20;49.30;;;;;;6152297;28;20062;-79
2022/09/19 00:15:58;;;;;;;3.30;0.82;;;17.10;49.30;;;;;;6159277;28;20118;-78
2022/09/19 00:19:02;;;;;;;5.18;1.02;;;17.10;49.40;;;;;;6138321;28;20035;-78
2022/09/19 00:22:03;;;;;;;9.90;1.25;;;17.10;49.40;;;;;;6172489;28;20069;-79
2022/09/19 00:25:05;;;;;;;5.25;1.30;;;17.10;49.60;;;;;;6174407;28;20038;-78
2022/09/19 00:28:06;;;;;;;2.60;1.00;;;17.00;49.80;;;;;;6173506;28;20043;-79
2022/09/19 00:31:17;;;;;;;4.45;1.13;;;16.90;50.10;;;;;;6154163;28;20074;-79
2022/09/19 00:34:19;;;;;;;2.70;1.10;;;16.90;50.30;;;;;;6147395;28;20719;-78
2022/09/19 00:37:21;;;;;;;4.25;1.00;;;16.80;50.40;;;;;;6178080;28;20186;-79
2022/09/19 00:40:22;;;;;;;2.22;1.20;;;16.80;50.50;;;;;;6147437;28;20046;-79
2022/09/19 00:43:42;;;;;;;2.63;1.00;;;16.80;50.60;;;;;;6146013;28;20039;-79
2022/09/19 00:46:43;;;;;;;1.48;0.98;;;16.70;50.70;;;;;;6147354;28;20036;-79
2022/09/19 00:49:48;;;;;;;3.53;1.05;;;16.70;50.80;;;;;;6146914;28;20042;-80
2022/09/19 00:52:54;;;;;;;2.08;1.10;;;16.70;50.80;;;;;;6137294;28;20045;-79
2022/09/19 00:55:55;;;;;;;1.25;0.73;;;16.70;51.00;;;;;;6160977;28;20106;-80
2022/09/19 00:58:58;;;;;;;1.33;0.77;;;16.70;51.10;;;;;;6160669;28;20134;-79
2022/09/19 01:02:03;;;;;;;1.27;0.70;;;16.70;51.30;;;;;;6163370;28;20043;-80
2022/09/19 01:05:06;;;;;;;3.00;0.98;;;16.70;51.40;;;;;;6152770;28;20114;-79
2022/09/19 01:08:35;;;;;;;2.50;1.17;;;16.70;51.40;;;;;;6150989;28;20051;-79
2022/09/19 01:12:02;;;;;;;2.60;0.60;;;16.70;51.40;;;;;;6152703;28;20074;-79
2022/09/19 01:15:38;;;;;;;2.25;0.98;;;16.60;51.50;;;;;;6150376;28;20465;-79
2022/09/19 01:19:01;;;;;;;1.55;0.90;;;16.60;51.60;;;;;;6169550;28;20491;-80
2022/09/19 01:22:13;;;;;;;1.88;0.93;;;16.50;51.70;;;;;;6148231;28;20130;-79
2022/09/19 01:25:57;;;;;;;0.88;0.65;;;16.50;51.70;;;;;;6148910;28;20039;-78
2022/09/19 01:29:07;;;;;;;2.25;0.90;;;16.40;51.70;;;;;;6059993;29;20525;-78
2022/09/19 01:32:14;;;;;;;2.58;1.20;;;16.40;51.80;;;;;;6075581;29;20036;-78
2022/09/19 01:35:18;;;;;;;11.95;2.10;;;16.40;51.90;;;;;;6060751;29;20056;-79
2022/09/19 01:38:24;;;;;;;0.98;0.70;;;16.30;51.90;;;;;;6074259;29;20482;-80
2022/09/19 01:41:27;;;;;;;1.50;0.90;;;16.30;51.90;;;;;;6059764;29;20032;-79
2022/09/19 01:44:30;;;;;;;2.70;0.93;;;16.30;51.90;;;;;;6062676;29;20048;-79
2022/09/19 01:47:42;;;;;;;2.63;0.82;;;16.40;52.00;;;;;;6076235;29;20124;-79
2022/09/19 01:51:02;;;;;;;1.63;0.85;;;16.30;51.90;;;;;;6076853;29;20378;-79
2022/09/19 01:54:35;;;;;;;5.57;1.10;;;16.30;52.10;;;;;;6080775;29;20481;-79
2022/09/19 01:58:11;;;;;;;3.33;1.00;;;16.30;52.30;;;;;;6049969;29;20462;-78
2022/09/19 02:01:40;;;;;;;7.03;1.13;;;16.30;52.40;;;;;;6051272;29;20047;-78
2022/09/19 02:05:06;;;;;;;1.25;0.60;;;16.30;52.50;;;;;;6083435;28;20034;-78
2022/09/19 02:08:21;;;;;;;5.18;1.08;;;16.30;52.40;;;;;;6146100;28;20078;-79
2022/09/19 02:11:23;;;;;;;3.20;0.90;;;16.20;52.40;;;;;;6110525;28;20349;-78
2022/09/19 02:14:28;;;;;;;1.85;1.05;;;16.20;52.50;;;;;;6145998;28;20038;-78
2022/09/19 02:17:44;;;;;;;2.38;1.00;;;16.20;52.50;;;;;;6167936;28;20084;-79
2022/09/19 02:20:53;;;;;;;4.70;0.88;;;16.10;52.50;;;;;;6157600;28;20488;-78
2022/09/19 02:23:59;;;;;;;3.25;1.10;;;16.10;52.50;;;;;;6166605;28;20055;-79
2022/09/19 02:27:20;;;;;;;3.50;1.25;;;16.10;52.50;;;;;;6165005;28;20450;-78
2022/09/19 02:30:22;;;;;;;3.47;1.13;;;16.00;52.50;;;;;;6134766;28;20155;-78
2022/09/19 02:33:27;;;;;;;4.40;1.00;;;16.00;52.80;;;;;;6154452;28;20109;-78
2022/09/19 02:36:39;;;;;;;1.63;0.80;;;16.00;53.00;;;;;;6158189;28;20408;-79
2022/09/19 02:40:04;;;;;;;3.15;1.05;;;15.90;53.20;;;;;;6163313;28;20042;-79
2022/09/19 02:43:33;;;;;;;3.47;0.75;;;15.90;53.90;;;;;;6152802;28;20031;-80
2022/09/19 02:47:03;;;;;;;2.97;1.27;;;15.90;53.30;;;;;;6149816;28;20035;-78
2022/09/19 02:50:12;;;;;;;2.40;0.98;;;15.80;53.40;;;;;;6128437;28;20043;-80
2022/09/19 02:53:24;;;;;;;1.13;1.00;;;15.80;53.40;;;;;;6160657;28;20469;-80
2022/09/19 02:56:29;;;;;;;2.35;0.93;;;15.80;53.60;;;;;;6146293;28;20121;-79
2022/09/19 02:59:36;;;;;;;2.15;0.90;;;15.80;53.60;;;;;;6154051;28;20034;-79
2022/09/19 03:02:47;;;;;;;2.15;0.77;;;15.70;53.70;;;;;;6124455;28;20606;-79
2022/09/19 03:05:51;;;;;;;1.83;0.98;;;15.70;53.70;;;;;;6145363;28;20027;-78
2022/09/19 03:08:56;;;;;;;1.55;0.80;;;15.60;53.80;;;;;;6141198;28;20086;-79
2022/09/19 03:12:14;;;;;;;2.05;1.15;;;15.60;54.10;;;;;;6143582;28;20061;-79
2022/09/19 03:15:36;;;;;;;3.83;1.30;;;15.50;54.30;;;;;;6144830;28;20114;-79
2022/09/19 03:18:39;;;;;;;5.80;0.77;;;15.50;54.60;;;;;;6145953;28;20039;-78
2022/09/19 03:21:41;;;;;;;4.03;1.05;;;15.50;54.90;;;;;;6146191;28;20105;-79
2022/09/19 03:24:43;;;;;;;1.60;1.10;;;15.50;55.20;;;;;;6147902;28;20043;-79
2022/09/19 03:27:45;;;;;;;2.25;1.35;;;15.60;55.50;;;;;;6160400;28;20031;-79
2022/09/19 03:30:50;;;;;;;8.55;1.20;;;15.50;55.60;;;;;;6146521;28;20043;-79
2022/09/19 03:33:51;;;;;;;2.08;0.93;;;15.50;55.70;;;;;;6148132;28;20058;-78
2022/09/19 03:36:53;;;;;;;1.40;0.80;;;15.50;55.80;;;;;;6147723;28;20047;-79
2022/09/19 03:40:00;;;;;;;1.27;0.88;;;15.50;55.90;;;;;;6132796;28;20035;-79
2022/09/19 03:43:01;;;;;;;4.90;1.10;;;15.40;56.00;;;;;;6149672;28;20050;-79
2022/09/19 03:46:02;;;;;;;2.15;1.00;;;15.40;56.10;;;;;;6149917;28;20051;-79
2022/09/19 03:49:03;;;;;;;8.00;1.02;;;15.40;56.20;;;;;;6148576;28;20050;-79
2022/09/19 03:52:06;;;;;;;1.95;0.98;;;15.40;56.30;;;;;;6154617;28;20042;-78
2022/09/19 03:55:07;;;;;;;2.28;1.25;;;15.40;56.40;;;;;;6154127;28;20031;-78
2022/09/19 03:58:14;;;;;;;6.60;1.00;;;15.40;56.40;;;;;;6140833;28;20035;-78
2022/09/19 04:01:16;;;;;;;5.20;1.20;;;15.30;56.20;;;;;;6146877;28;20066;-79
2022/09/19 04:04:21;;;;;;;3.72;0.95;;;15.30;56.20;;;;;;6165545;28;20034;-79
2022/09/19 04:07:29;;;;;;;2.17;1.08;;;15.20;56.70;;;;;;6148652;28;20110;-78
2022/09/19 04:10:31;;;;;;;2.55;1.08;;;15.20;56.20;;;;;;6145035;28;20449;-79
2022/09/19 04:13:33;;;;;;;3.53;1.17;;;15.20;56.40;;;;;;6145105;28;20062;-79
2022/09/19 04:16:39;;;;;;;4.63;1.20;;;15.10;56.40;;;;;;6143942;28;20032;-79
2022/09/19 04:19:44;;;;;;;2.85;1.00;;;15.10;56.40;;;;;;6144963;28;20368;-79
2022/09/19 04:23:05;;;;;;;1.67;0.98;;;15.10;56.50;;;;;;6151210;28;20038;-78
2022/09/19 04:26:21;;;;;;;4.63;1.27;;;15.00;56.50;;;;;;6130607;28;20046;-78
2022/09/19 04:29:23;;;;;;;1.33;0.85;;;15.00;56.50;;;;;;6143883;28;20059;-79
2022/09/19 04:32:24;;;;;;;3.45;1.02;;;14.90;56.50;;;;;;6144752;28;20038;-79
2022/09/19 04:35:34;;;;;;;1.70;0.90;;;14.90;56.50;;;;;;6147830;28;20035;-78
2022/09/19 04:38:36;;;;;;;1.60;1.02;;;14.80;56.60;;;;;;6151696;28;20113;-80
2022/09/19 04:41:42;;;;;;;3.65;1.30;;;14.80;56.70;;;;;;6135654;28;20031;-79
2022/09/19 04:44:44;;;;;;;5.18;1.73;;;14.80;57.20;;;;;;6134299;28;20042;-79
2022/09/19 04:47:58;;;;;;;9.43;1.40;;;14.80;57.50;;;;;;6150930;28;20472;-79
2022/09/19 04:51:05;;;;;;;2.88;1.55;;;14.80;57.60;;;;;;6125148;28;20051;-79
2022/09/19 04:54:06;;;;;;;3.97;1.30;;;14.80;57.80;;;;;;6149053;28;20122;-79
2022/09/19 04:57:09;;;;;;;3.17;1.33;;;14.80;57.90;;;;;;6149137;28;20081;-79
2022/09/19 05:00:11;;;;;;;4.30;1.10;;;14.80;57.90;;;;;;6153588;28;20109;-79
2022/09/19 05:03:17;;;;;;;2.42;1.30;;;14.80;57.90;;;;;;6148811;28;20039;-78
2022/09/19 05:06:18;;;;;;;3.85;1.25;;;14.70;57.70;;;;;;6148953;28;20042;-80
2022/09/19 05:09:22;;;;;;;9.77;1.15;;;14.80;57.80;;;;;;6153274;28;20150;-80
2022/09/19 05:12:43;;;;;;;6.70;1.40;;;14.70;57.70;;;;;;6172538;28;20142;-80
2022/09/19 05:15:45;;;;;;;9.88;1.55;;;14.80;57.70;;;;;;6174821;28;20496;-80
2022/09/19 05:18:46;;;;;;;3.15;1.40;;;14.80;57.60;;;;;;6187724;28;20059;-80
2022/09/19 05:21:51;;;;;;;6.25;1.35;;;14.80;57.60;;;;;;6133628;28;20051;-80
2022/09/19 05:24:52;;;;;;;2.10;1.15;;;14.70;57.50;;;;;;6170744;28;20063;-78
2022/09/19 05:27:55;;;;;;;3.83;1.02;;;14.80;57.60;;;;;;6163020;28;20042;-79
2022/09/19 05:30:57;;;;;;;8.25;1.38;;;14.80;57.80;;;;;;6174095;28;20038;-80
2022/09/19 05:34:02;;;;;;;3.42;1.10;;;14.80;57.70;;;;;;6155526;28;20043;-80
2022/09/19 05:37:05;;;;;;;7.30;1.17;;;14.70;57.70;;;;;;6131028;28;20057;-80
2022/09/19 05:40:36;;;;;;;7.25;1.70;;;14.70;57.70;;;;;;6127997;28;20035;-81
2022/09/19 05:43:48;;;;;;;3.25;1.63;;;14.60;57.70;;;;;;6156866;28;20051;-79
2022/09/19 05:46:51;;;;;;;3.55;1.25;;;14.50;57.70;;;;;;6157597;28;20035;-79
2022/09/19 05:49:52;;;;;;;2.60;1.30;;;14.50;57.60;;;;;;6139260;28;20122;-79
2022/09/19 05:56:13;;;;;;;7.28;1.27;;;14.60;57.60;;;;;;6147829;28;20039;-78
2022/09/19 05:59:31;;;;;;;7.50;1.42;;;14.60;57.50;;;;;;6144166;28;20054;-80
2022/09/19 06:02:33;;;;;;;5.95;1.80;;;14.60;57.30;;;;;;6143122;28;20114;-80
2022/09/19 06:05:41;;;;;;;3.53;1.30;;;14.60;57.20;;;;;;6146753;28;20054;-78
2022/09/19 06:08:43;;;;;;;3.28;1.27;;;14.60;57.20;;;;;;6157958;28;20054;-80
2022/09/19 06:11:48;;;;;;;2.92;1.52;;;14.60;57.10;;;;;;6133514;28;20043;-80
2022/09/19 06:14:49;;;;;;;3.20;1.60;;;14.60;57.10;;;;;;6150169;28;20125;-78
2022/09/19 06:17:59;;;;;;;2.17;1.30;;;14.70;57.10;;;;;;6153161;28;20144;-79
2022/09/19 06:21:27;;;;;;;5.57;1.67;;;14.70;57.10;;;;;;6170462;28;20047;-78
2022/09/19 06:24:28;;;;;;;4.85;2.17;;;14.70;57.00;;;;;;6168450;28;20066;-79
2022/09/19 06:27:29;;;;;;;5.63;1.83;;;14.70;57.00;;;;;;6147329;28;20041;-79
2022/09/19 06:30:31;;;;;;;3.58;1.80;;;14.70;57.00;;;;;;6146314;28;20047;-81
2022/09/19 06:33:57;;;;;;;4.75;1.70;;;14.70;57.10;;;;;;6144808;28;20034;-80
2022/09/19 06:37:04;;;;;;;3.63;1.50;;;14.80;57.10;;;;;;6154687;28;20035;-79
2022/09/19 06:40:06;;;;;;;6.60;2.22;;;14.80;57.20;;;;;;6161777;28;20121;-78
2022/09/19 06:43:22;;;;;;;6.05;1.67;;;14.90;57.20;;;;;;6114842;28;20054;-80
2022/09/19 06:46:46;;;;;;;4.65;1.92;;;15.00;57.20;;;;;;6099302;29;20080;-80
2022/09/19 06:50:06;;;;;;;12.25;1.80;;;15.00;57.10;;;;;;6107902;29;20446;-80
2022/09/19 06:53:10;;;;;;;4.70;2.17;;;15.10;57.00;;;;;;6117134;29;20474;-80
2022/09/19 06:56:11;;;;;;;7.28;1.70;;;15.10;57.00;;;;;;6106675;29;20071;-80
2022/09/19 06:59:13;;;;;;;3.17;1.60;;;15.20;57.10;;;;;;6122488;29;20079;-79
2022/09/19 07:02:14;;;;;;;3.08;1.58;;;15.30;57.10;;;;;;6097434;29;20042;-79
2022/09/19 07:05:16;;;;;;;8.88;1.50;;;15.30;57.10;;;;;;6119899;29;20028;-80
2022/09/19 07:08:24;;;;;;;3.85;1.40;;;15.30;57.00;;;;;;6103494;29;20135;-80
2022/09/19 07:11:28;;;;;;;4.40;2.03;;;15.40;57.00;;;;;;6105004;29;20191;-80
2022/09/19 07:14:29;;;;;;;6.25;1.67;;;15.40;56.90;;;;;;6097182;29;20035;-79
2022/09/19 07:17:32;;;;;;;11.77;1.83;;;15.50;56.80;;;;;;6110132;29;20059;-79
2022/09/19 07:20:36;;;;;;;4.25;1.50;;;15.50;56.80;;;;;;6122355;29;20028;-79
2022/09/19 07:23:50;;;;;;;4.75;1.85;;;15.50;56.70;;;;;;6133277;28;20042;-78
2022/09/19 07:27:10;;;;;;;4.93;1.67;;;15.60;56.60;;;;;;6147783;28;20039;-80
2022/09/19 07:30:20;;;;;;;3.58;1.45;;;15.70;56.50;;;;;;6141396;28;20027;-80
2022/09/19 07:33:21;;;;;;;7.50;2.20;;;15.90;56.30;;;;;;6154188;28;20032;-78
2022/09/19 07:36:23;;;;;;;10.18;4.25;;;16.00;56.10;;;;;;6130899;28;20039;-79
2022/09/19 07:39:24;;;;;;;7.57;3.72;;;16.10;55.70;;;;;;6142653;28;20035;-80
2022/09/19 07:43:04;;;;;;;11.18;2.97;;;16.20;55.40;;;;;;6138399;28;20053;-80
2022/09/19 07:46:25;;;;;;;4.75;1.98;;;16.20;55.20;;;;;;6147376;28;20041;-81
2022/09/19 07:49:54;;;;;;;5.53;1.98;;;16.30;55.00;;;;;;6141254;28;20089;-80
2022/09/19 07:53:29;;;;;;;4.30;1.67;;;16.40;54.90;;;;;;6085916;29;20087;-79
2022/09/19 07:56:32;;;;;;;6.38;2.20;;;16.50;54.70;;;;;;6079509;29;20465;-80
2022/09/19 07:59:33;;;;;;;3.83;1.80;;;16.70;54.60;;;;;;6079260;29;20362;-79
2022/09/19 08:02:36;;;;;;;3.15;1.23;;;16.80;54.40;;;;;;6090892;29;20115;-79
2022/09/19 08:05:41;;;;;;;4.28;2.10;;;16.80;54.10;;;;;;6078302;29;20055;-80
2022/09/19 08:08:42;;;;;;;6.70;2.13;;;16.90;53.80;;;;;;6074036;29;20152;-81
2022/09/19 08:12:06;;;;;;;4.68;2.03;;;17.00;53.70;;;;;;6095413;29;20143;-80
2022/09/19 08:15:16;;;;;;;5.60;2.47;;;17.10;53.40;;;;;;6081136;29;20058;-81
2022/09/19 08:18:21;;;;;;;11.18;2.50;;;17.20;53.10;;;;;;6082212;29;20063;-80
2022/09/19 08:21:23;;;;;;;8.18;2.50;;;17.20;52.90;;;;;;6097073;29;20078;-79
2022/09/19 08:24:24;;;;;;;5.13;2.30;;;17.30;52.80;;;;;;6083161;29;20094;-80
2022/09/19 08:27:30;;;;;;;6.88;2.15;;;17.40;52.60;;;;;;6118757;29;20123;-80
2022/09/19 08:30:34;;;;;;;3.92;1.85;;;17.60;52.40;;;;;;6128888;28;20063;-80
2022/09/19 08:33:35;;;;;;;6.40;2.10;;;17.70;52.10;;;;;;6147993;28;20042;-78
2022/09/19 08:36:36;;;;;;;7.10;1.70;;;17.80;51.80;;;;;;6144757;28;20039;-80
2022/09/19 08:40:15;;;;;;;6.78;2.15;;;17.90;51.50;;;;;;6145401;28;20509;-80
2022/09/19 08:43:11;;;;;;;7.95;2.17;;;18.00;51.20;;;;;;6144952;28;20074;-80
2022/09/19 08:46:43;;;;;;;2.75;1.48;;;18.20;51.10;;;;;;6140566;28;20061;-80
2022/09/19 08:50:13;;;;;;;4.28;1.40;;;18.40;50.50;;;;;;6147657;28;20086;-79
2022/09/19 08:53:32;;;;;;;9.93;1.83;;;18.40;49.90;;;;;;6055970;29;20123;-79
2022/09/19 08:56:37;;;;;;;5.38;1.65;;;18.50;49.60;;;;;;6060351;29;20051;-80
2022/09/19 08:59:39;;;;;;;4.82;1.23;;;18.60;49.30;;;;;;6044534;29;20064;-79
2022/09/19 09:02:44;;;;;;;4.18;1.42;;;18.60;48.80;;;;;;6057525;29;20041;-79
2022/09/19 09:05:56;;;;;;;5.65;1.55;;;18.70;48.40;;;;;;6072772;29;20042;-79
2022/09/19 09:09:05;;;;;;;4.53;1.05;;;18.80;48.10;;;;;;6060425;29;20536;-81
2022/09/19 09:12:32;;;;;;;4.15;1.20;;;18.90;47.80;;;;;;6047185;29;20402;-78
2022/09/19 09:15:48;;;;;;;4.55;1.10;;;19.00;47.00;;;;;;6070242;29;20148;-80
2022/09/19 09:19:17;;;;;;;4.43;0.95;;;19.10;46.60;;;;;;6047119;29;20331;-79
2022/09/19 09:22:24;;;;;;;;;;;19.20;46.20;;;;;;6088905;29;20115;-80
2022/09/19 09:25:39;;;;;;;11.77;1.83;;;19.30;46.00;;;;;;6055404;29;19983;-80
2022/09/19 09:28:56;;;;;;;7.00;1.33;;;19.50;46.00;;;;;;6082293;28;20039;-80
2022/09/19 09:32:32;;;;;;;3.05;1.38;;;19.60;46.10;;;;;;6148470;28;20098;-81
2022/09/19 09:35:42;;;;;;;7.50;1.40;;;19.70;45.80;;;;;;6160039;28;20070;-79
2022/09/19 09:38:55;;;;;;;19.05;1.58;;;19.90;45.40;;;;;;6158331;28;20038;-80
2022/09/19 09:42:05;;;;;;;4.35;1.05;;;20.00;45.20;;;;;;6133369;28;21100;-80
2022/09/19 09:45:34;;;;;;;16.85;1.67;;;20.00;45.10;;;;;;6148268;28;20038;-81
2022/09/19 09:48:40;;;;;;;6.85;1.17;;;20.10;45.10;;;;;;6144581;28;20027;-79
2022/09/19 09:52:08;;;;;;;1.83;1.05;;;20.10;44.80;;;;;;6121594;28;20167;-79
2022/09/19 10:03:34;;;;;;;3.05;0.90;;;20.20;44.30;;;;;;6142331;28;20031;-79
2022/09/19 10:06:53;;;;;;;6.47;1.67;;;20.40;43.80;;;;;;6101551;29;20465;-80
2022/09/19 10:10:01;;;;;;;10.00;2.05;;;20.60;43.60;;;;;;6101074;29;20556;-80
2022/09/19 10:13:29;;;;;;;11.07;1.25;;;20.70;43.50;;;;;;6099206;29;20056;-79
2022/09/19 10:16:34;;;;;;;1.92;1.00;;;20.80;43.40;;;;;;6012536;29;20058;-80
2022/09/19 10:19:49;;;;;;;10.13;4.82;;;20.90;43.20;;;;;;5993650;29;20408;-80
2022/09/19 10:22:53;;;;;;;5.85;2.15;;;21.00;42.90;;;;;;6029108;29;20064;-80
2022/09/19 10:26:03;;;;;;;2.50;1.00;;;21.10;42.60;;;;;;6003134;29;20073;-80
2022/09/19 10:29:14;;;;;;;5.90;1.15;;;21.30;42.20;;;;;;5989038;29;20444;-80
2022/09/19 10:32:17;;;;;;;5.18;1.67;;;21.50;41.70;;;;;;6022762;29;20053;-79
2022/09/19 10:35:58;;;;;;;7.60;1.50;;;21.80;41.00;;;;;;5984345;29;20034;-82
2022/09/19 10:39:14;;;;;;;5.28;1.17;;;22.10;40.50;;;;;;5968368;29;20389;-80
2022/09/19 10:42:38;;;;;;;3.78;1.00;;;22.40;39.90;;;;;;5998082;29;20052;-80
2022/09/19 10:45:46;;;;;;;7.40;1.00;;;22.70;39.20;;;;;;6031283;29;20048;-81
2022/09/19 10:48:53;;;;;;;3.00;1.15;;;23.00;38.70;;;;;;6029979;29;20120;-82
2022/09/19 10:51:56;;;;;;;3.08;1.00;;;23.20;38.00;;;;;;6020023;29;20042;-81
2022/09/19 10:55:00;;;;;;;2.05;0.68;;;23.40;37.20;;;;;;6060598;29;20044;-81
2022/09/19 10:58:05;;;;;;;3.35;0.90;;;23.50;36.70;;;;;;6060252;29;20725;-80
2022/09/19 11:01:25;;;;;;;10.15;1.52;;;23.70;36.40;;;;;;6068331;29;20033;-80
2022/09/19 11:04:27;;;;;;;4.82;0.80;;;23.80;36.00;;;;;;6054808;29;20466;-78
2022/09/19 11:07:54;;;;;;;4.75;1.02;;;24.00;35.70;;;;;;6058070;29;20474;-80
2022/09/19 11:11:03;;;;;;;1.25;0.80;;;24.20;35.10;;;;;;6068964;28;20046;-81
2022/09/19 11:14:26;;;;;;;3.10;0.90;;;24.30;34.50;;;;;;6169789;28;20034;-81
2022/09/19 11:17:57;;;;;;;2.95;1.08;;;24.30;34.10;;;;;;6168802;28;20034;-80
2022/09/19 11:21:25;;;;;;;2.20;0.80;;;24.40;33.60;;;;;;6136057;28;20039;-80
2022/09/19 11:24:26;;;;;;;5.07;0.70;;;24.60;34.10;;;;;;6143226;28;20062;-80
2022/09/19 11:28:10;;;;;;;11.05;1.45;;;24.80;33.30;;;;;;6133081;28;20035;-80
2022/09/19 11:31:33;;;;;;;4.90;1.15;;;25.00;33.10;;;;;;6120360;28;20042;-79
2022/09/19 11:34:56;;;;;;;5.00;1.67;;;25.30;32.40;;;;;;6149578;28;20027;-80
2022/09/19 11:38:16;;;;;;;3.42;1.02;;;25.50;32.00;;;;;;6145511;28;20058;-83
2022/09/19 11:41:24;;;;;;;6.20;1.25;;;25.80;31.60;;;;;;6140998;28;20062;-79
2022/09/19 11:44:46;;;;;;;3.33;0.88;;;26.00;31.20;;;;;;6137593;28;20471;-80
2022/09/19 11:47:54;;;;;;;14.82;1.35;;;26.20;30.50;;;;;;6167666;28;20105;-81
2022/09/19 11:51:04;;;;;;;2.72;1.05;;;26.30;30.00;;;;;;6167638;28;20444;-81
2022/09/19 11:54:44;;;;;;;13.20;1.00;;;26.60;30.00;;;;;;6158680;28;20114;-80
2022/09/19 11:58:24;;;;;;;4.38;0.80;;;26.80;29.70;;;;;;6121805;28;20042;-80
2022/09/19 12:01:40;;;;;;;9.88;1.10;;;27.10;29.20;;;;;;6150623;28;20039;-80
2022/09/19 12:05:28;;;;;;;12.40;1.30;;;27.30;28.90;;;;;;6162222;28;20129;-80
2022/09/19 12:09:00;;;;;;;2.15;0.88;;;27.50;28.70;;;;;;6142062;28;20074;-80
2022/09/19 12:12:04;;;;;;;8.60;1.10;;;27.80;27.90;;;;;;6158738;28;20141;-80
2022/09/19 12:15:28;;;;;;;4.03;0.68;;;28.00;27.60;;;;;;6154171;28;20035;-79
2022/09/19 12:18:45;;;;;;;2.22;0.70;;;28.30;27.20;;;;;;6167664;28;20046;-79
2022/09/19 12:21:50;;;;;;;2.58;0.90;;;28.70;26.80;;;;;;6139742;28;20039;-78
2022/09/19 12:25:18;;;;;;;4.63;1.13;;;29.00;26.20;;;;;;6146665;28;20078;-79
2022/09/19 12:28:23;;;;;;;2.53;1.00;;;29.30;26.00;;;;;;6139303;28;20035;-79
2022/09/19 12:31:33;;;;;;;5.20;1.60;;;29.60;25.60;;;;;;6137281;28;20466;-80
2022/09/19 12:34:47;;;;;;;9.90;0.98;;;30.00;25.30;;;;;;6147474;28;20032;-79
2022/09/19 12:38:01;;;;;;;1.83;0.70;;;30.60;25.10;;;;;;6150472;28;20520;-79
2022/09/19 12:41:16;;;;;;;4.68;0.85;;;31.10;24.60;;;;;;6139354;28;20039;-81
2022/09/19 12:44:23;;;;;;;5.00;0.95;;;31.40;24.00;;;;;;6177652;28;20055;-79
2022/09/19 12:48:00;;;;;;;6.80;1.25;;;31.50;23.80;;;;;;6116742;28;20030;-80
2022/09/19 12:51:13;;;;;;;1.50;1.00;;;31.70;23.80;;;;;;6178098;28;20038;-80
2022/09/19 12:54:44;;;;;;;6.90;1.08;;;32.40;23.30;;;;;;6175159;28;20035;-79
2022/09/19 12:58:00;;;;;;;2.20;0.85;;;32.80;22.80;;;;;;6148543;28;20027;-79
2022/09/19 13:01:34;;;;;;;2.40;1.05;;;33.30;22.40;;;;;;6157794;28;20103;-80
2022/09/19 13:04:53;;;;;;;1.45;0.70;;;33.60;22.00;;;;;;6083603;29;20118;-80
2022/09/19 13:08:09;;;;;;;4.00;0.77;;;33.70;21.90;;;;;;6095889;29;20047;-82
2022/09/19 13:11:39;;;;;;;3.13;1.00;;;33.70;21.70;;;;;;6103532;29;20409;-80
2022/09/19 13:14:54;;;;;;;1.05;0.60;;;33.50;21.80;;;;;;6107505;29;20044;-81
2022/09/19 13:24:41;;;;;;;1.17;0.80;;;32.80;21.70;;;;;;6098291;29;20047;-80
2022/09/19 13:27:46;;;;;;;5.78;0.95;;;32.60;21.70;;;;;;6100693;29;20093;-80
2022/09/19 13:31:09;;;;;;;4.15;0.75;;;31.80;22.30;;;;;;6085699;29;20037;-80
2022/09/19 13:34:39;;;;;;;4.90;0.95;;;30.70;23.50;;;;;;6083125;29;20096;-80
2022/09/19 13:37:43;;;;;;;2.17;0.70;;;29.50;24.40;;;;;;6078689;29;20135;-80
2022/09/19 13:41:02;;;;;;;1.83;0.73;;;28.50;25.20;;;;;;6131032;28;20647;-79
2022/09/19 13:44:24;;;;;;;1.80;1.30;;;27.60;26.00;;;;;;6166950;28;20048;-79
2022/09/19 13:47:27;;;;;;;4.05;0.70;;;27.00;26.70;;;;;;6155596;28;20412;-79
2022/09/19 13:50:48;;;;;;;2.15;0.70;;;26.30;27.40;;;;;;6153464;28;20455;-80
2022/09/19 13:54:13;;;;;;;2.53;0.90;;;25.90;28.00;;;;;;6153453;28;20364;-80
2022/09/19 13:57:21;;;;;;;1.80;0.70;;;25.50;28.40;;;;;;6156095;28;20031;-81
2022/09/19 14:00:29;;;;;;;2.47;0.70;;;25.30;28.70;;;;;;6145093;28;20408;-80
2022/09/19 14:03:34;;;;;;;9.07;0.83;;;25.10;28.90;;;;;;6132173;28;20349;-80
2022/09/19 14:06:35;;;;;;;2.70;0.75;;;24.90;29.00;;;;;;6150100;28;20279;-79
2022/09/19 14:09:38;;;;;;;0.57;0.52;;;24.80;29.30;;;;;;6149253;28;20366;-79
2022/09/19 14:12:46;;;;;;;1.48;0.85;;;24.70;29.50;;;;;;6149488;28;20047;-80
2022/09/19 14:16:05;;;;;;;;;;;24.50;29.50;;;;;;6150003;28;20042;-80
2022/09/19 14:19:43;;;;;;;2.33;0.90;;;24.50;29.60;;;;;;6144412;28;19977;-80
2022/09/19 14:22:44;;;;;;;1.90;0.80;;;24.40;29.80;;;;;;6150345;28;20049;-79
2022/09/19 14:26:06;;;;;;;6.22;0.80;;;24.30;29.90;;;;;;6165777;28;20054;-79
2022/09/19 14:29:21;;;;;;;3.42;0.90;;;24.30;30.00;;;;;;6156906;28;20035;-80
2022/09/19 14:32:53;;;;;;;2.22;1.02;;;24.40;30.00;;;;;;6152563;28;20098;-79
2022/09/19 14:36:14;;;;;;;0.88;0.70;;;24.20;30.10;;;;;;6145810;28;20053;-80
2022/09/19 14:39:33;;;;;;;2.97;1.20;;;24.10;30.20;;;;;;6148796;28;20122;-80
2022/09/19 14:43:15;;;;;;;1.15;0.70;;;24.10;30.40;;;;;;6147724;28;20131;-80
2022/09/19 14:46:34;;;;;;;0.77;0.70;;;24.00;30.70;;;;;;6056265;29;20040;-79
2022/09/19 14:50:07;;;;;;;6.10;1.25;;;24.10;30.90;;;;;;6063167;29;20028;-79
2022/09/19 14:53:25;;;;;;;1.65;0.80;;;24.10;30.90;;;;;;6052274;29;20140;-79
2022/09/19 14:56:26;;;;;;;2.22;0.77;;;24.10;31.00;;;;;;6070929;29;20040;-79
2022/09/19 14:59:32;;;;;;;0.85;0.65;;;24.10;31.00;;;;;;6057148;29;20044;-80
2022/09/19 15:02:33;;;;;;;2.63;0.68;;;24.10;31.00;;;;;;6058593;29;20040;-80
2022/09/19 15:05:42;;;;;;;2.42;0.80;;;24.10;31.10;;;;;;6065497;29;20069;-80
2022/09/19 15:08:48;;;;;;;2.75;0.98;;;24.10;31.20;;;;;;6057426;29;20203;-79
2022/09/19 15:11:51;;;;;;;1.50;0.70;;;24.10;31.30;;;;;;6059467;29;20048;-79
2022/09/19 15:14:57;;;;;;;2.15;1.05;;;24.10;31.50;;;;;;6059612;29;20044;-80
2022/09/19 15:17:58;;;;;;;1.48;0.80;;;24.10;31.60;;;;;;6057676;29;20147;-80
2022/09/19 15:21:02;;;;;;;1.70;0.70;;;24.10;31.70;;;;;;6056773;29;20045;-79
2022/09/19 15:24:08;;;;;;;1.92;0.60;;;24.10;31.80;;;;;;6130375;28;20043;-79
2022/09/19 15:27:11;;;;;;;1.15;0.70;;;24.10;32.00;;;;;;6157014;28;20034;-79
2022/09/19 15:30:23;;;;;;;2.63;0.70;;;24.10;32.20;;;;;;6163758;28;20047;-80
2022/09/19 15:33:29;;;;;;;1.58;0.73;;;24.00;32.40;;;;;;6127610;28;20053;-80
2022/09/19 15:36:36;;;;;;;3.50;0.93;;;24.00;32.60;;;;;;6131825;28;20485;-79
2022/09/19 15:39:38;;;;;;;0.93;0.50;;;24.00;32.80;;;;;;6155232;28;20028;-81
2022/09/19 15:42:43;;;;;;;1.00;0.73;;;24.00;33.10;;;;;;6149339;28;20043;-80
2022/09/19 15:45:48;;;;;;;3.55;1.52;;;23.90;33.30;;;;;;6153022;28;20855;-79
2022/09/19 15:48:52;;;;;;;0.70;0.60;;;23.80;33.50;;;;;;6172732;28;20034;-79
2022/09/19 15:51:59;;;;;;;2.85;0.95;;;23.80;33.70;;;;;;6153617;28;20046;-78
2022/09/19 15:55:02;;;;;;;5.00;0.70;;;23.80;33.90;;;;;;6150941;28;20039;-79
2022/09/19 15:58:04;;;;;;;5.63;0.90;;;23.80;34.10;;;;;;6150212;28;20040;-80
2022/09/19 16:01:21;;;;;;;4.13;0.90;;;23.80;34.30;;;;;;6148069;28;20051;-79
2022/09/19 16:04:26;;;;;;;5.30;0.95;;;23.80;34.40;;;;;;6146437;28;20061;-80
2022/09/19 16:10:55;;;;;;;2.85;0.65;;;23.70;34.70;;;;;;6147854;28;20046;-80
2022/09/19 16:14:27;;;;;;;2.65;0.70;;;23.70;34.90;;;;;;6142620;28;20039;-79
2022/09/19 16:17:52;;;;;;;2.72;0.93;;;23.70;35.00;;;;;;6073513;29;20040;-79
2022/09/19 16:20:59;;;;;;;4.80;0.60;;;23.70;35.10;;;;;;5978716;29;20034;-79
2022/09/19 16:24:01;;;;;;;1.23;0.53;;;23.60;35.10;;;;;;5987892;29;20056;-80
2022/09/19 16:27:04;;;;;;;1.85;0.60;;;23.60;35.40;;;;;;6003961;29;20054;-80
2022/09/19 16:30:09;;;;;;;0.80;0.75;;;23.50;35.70;;;;;;6004262;29;20391;-79
2022/09/19 16:33:12;;;;;;;2.90;0.52;;;23.40;35.90;;;;;;5986755;29;20050;-81
2022/09/19 16:36:15;;;;;;;2.00;0.70;;;23.30;36.10;;;;;;6002617;29;20038;-80
2022/09/19 16:39:21;;;;;;;0.98;0.63;;;23.20;36.20;;;;;;5993050;29;20048;-81
2022/09/19 16:42:30;;;;;;;2.63;0.68;;;23.10;36.50;;;;;;5987772;29;20042;-79
2022/09/19 16:45:41;;;;;;;0.73;0.40;;;23.00;36.60;;;;;;6004121;29;20104;-79
2022/09/19 16:48:43;;;;;;;3.20;0.80;;;23.00;36.80;;;;;;6003960;29;20060;-80
2022/09/19 16:51:49;;;;;;;3.05;0.60;;;22.90;37.00;;;;;;6002941;29;20674;-79
2022/09/19 16:54:51;;;;;;;2.92;0.50;;;22.80;37.20;;;;;;6052495;29;20041;-79
2022/09/19 16:57:57;;;;;;;2.38;0.70;;;22.80;37.40;;;;;;6107016;28;20118;-80